Pagrindinis puslapis
METAR-TAF:

METAR-TAF

Oro uostai :

Visakhapatnamas, Indija

platuma: 17-43-16N, ilguma: 83-13-28E, Aukštis: 6 m

Dabartinis oras

Ataskaita buvo paskelbta 21 minutes, ne 15:30 UTC
Vėjas 3 kt iš Rytų/Šiaurės Rytų
Temperatūra 26°C
Drėgmė 84%
Slėgis 1014 hPa
Matomumas: 3000 m
Mažai debesys ne aukštis 1800 ft
Išsisklaidę debesys ne aukštis 22000 ft
rūkana

METAR: VOVZ 191530Z 07003KT 3000 BR FEW018 SCT220 26/23 Q1014 NOSIG

Laikas: 21:21 (15:51 UTC)

Prognozė

Ataskaita buvo paskelbta 1 valandą ir 51 minutes, ne 14:00 UTC
Prognozė galioja nuo 19 metu 15 UTC su 19 metu 24 UTC
Vėjas 6 kt iš Rytų/Šiaurės Rytų
Matomumas: 3000 m
Mažai debesys ne aukštis 1800 ft
Išsisklaidę debesys ne aukštis 22000 ft
rūkana
Tapsmas
nuo 19 metu 16 UTC su 19 metu 18 UTC
Vėjas 2 kt nuo kintamojo kryptimis

TAF: VOVZ 191400Z 1915/1924 07006KT 3000 BR FEW018 SCT220 BECMG 1916/1918 VRB02KT

Orai ataskaitas ir orų prognozės (METAR, TAF).

turimą stotys yra geltonos ir raudonos taškus žemėlapyje.

Perkelti pele per norėdami pamatyti stoties vardą.

Tada spustelėkite, norėdami matyti oro stebėjimo ir prognozės.

Norėdami pakeisti žemėlapį: spustelėkite ant žalios mygtukų su juodo kryžiaus žemyn,; žalią mygtuką su brūkšneliu, jei norite nutolinti; arba žalių rodyklių gretimoms žemėlapius.


METAR-TAF: